Time;durP1;ratioP1;P1;durP2;ratioP2;P2;SDS_P1;SDS_P2;PMS_P1;PMS_P2;Temp;Humidity;BMP_temperature;BMP_pressure;BME280_temperature;BME280_humidity;BME280_pressure;Samples;Min_cycle;Max_cycle;Signal;HPM_P1;HPM_P2
2021/10/29 00:02:03;;;;;;;;;15.00;13.67;;;;;;;;5096281;28;8853;-77
2021/10/29 00:04:29;;;;;;;;;11.67;11.67;;;;;;;;5097517;28;8799;-79
2021/10/29 00:06:54;;;;;;;;;17.33;15.33;;;;;;;;5096034;28;8781;-79
2021/10/29 00:09:19;;;;;;;;;15.67;15.67;;;;;;;;5097389;28;8765;-79
2021/10/29 00:11:44;;;;;;;;;12.67;12.67;;;;;;;;5095944;28;8822;-79
2021/10/29 00:14:10;;;;;;;;;12.67;10.33;;;;;;;;5097076;28;8794;-79
2021/10/29 00:16:35;;;;;;;;;14.67;13.67;;;;;;;;5096857;28;8841;-77
2021/10/29 00:19:00;;;;;;;;;12.00;11.67;;;;;;;;5097400;28;9572;-79
2021/10/29 00:21:26;;;;;;;;;15.33;14.00;;;;;;;;5096915;28;8822;-79
2021/10/29 00:23:51;;;;;;;;;14.67;13.00;;;;;;;;5097175;28;8809;-80
2021/10/29 00:26:17;;;;;;;;;12.67;12.33;;;;;;;;5097076;28;8804;-80
2021/10/29 00:28:42;;;;;;;;;13.67;12.00;;;;;;;;5095580;28;8810;-79
2021/10/29 00:31:07;;;;;;;;;14.33;14.00;;;;;;;;5110633;28;8849;-79
2021/10/29 00:33:32;;;;;;;;;15.00;13.67;;;;;;;;5116135;28;8835;-80
2021/10/29 00:35:58;;;;;;;;;14.00;12.00;;;;;;;;5117268;27;8876;-79
2021/10/29 00:38:23;;;;;;;;;14.67;12.33;;;;;;;;5117313;27;8910;-79
2021/10/29 00:40:48;;;;;;;;;13.00;13.00;;;;;;;;5117275;27;8907;-80
2021/10/29 00:43:13;;;;;;;;;13.00;13.00;;;;;;;;5117220;27;8799;-80
2021/10/29 00:45:39;;;;;;;;;12.00;12.00;;;;;;;;5117004;27;8798;-79
2021/10/29 00:48:06;;;;;;;;;15.00;14.00;;;;;;;;5117223;27;8791;-78
2021/10/29 00:50:31;;;;;;;;;12.00;12.00;;;;;;;;5115980;28;8791;-78
2021/10/29 00:52:56;;;;;;;;;15.00;15.00;;;;;;;;5117033;27;8790;-78
2021/10/29 00:55:22;;;;;;;;;14.00;14.00;;;;;;;;5115727;28;8822;-79
2021/10/29 00:57:49;;;;;;;;;13.00;13.00;;;;;;;;5117260;27;8787;-79
2021/10/29 01:00:14;;;;;;;;;14.00;14.00;;;;;;;;5116960;27;8897;-79
2021/10/29 01:02:40;;;;;;;;;12.00;12.00;;;;;;;;5117146;27;9024;-78
2021/10/29 01:05:05;;;;;;;;;16.33;16.33;;;;;;;;5116905;27;8839;-80
2021/10/29 01:07:31;;;;;;;;;13.67;13.67;;;;;;;;5116941;27;8907;-80
2021/10/29 01:09:56;;;;;;;;;18.33;15.00;;;;;;;;5116766;27;8807;-79
2021/10/29 01:12:22;;;;;;;;;12.67;12.67;;;;;;;;5116871;27;8853;-80
2021/10/29 01:14:56;;;;;;;;;13.00;12.00;;;;;;;;5116662;27;8837;-80
2021/10/29 01:17:22;;;;;;;;;11.50;11.25;;;;;;;;5116579;27;8941;-78
2021/10/29 01:19:50;;;;;;;;;14.67;14.00;;;;;;;;5116732;27;8921;-80
2021/10/29 01:22:15;;;;;;;;;13.75;13.25;;;;;;;;5116505;27;8838;-79
2021/10/29 01:24:40;;;;;;;;;13.33;11.67;;;;;;;;5116873;28;8791;-79
2021/10/29 01:27:09;;;;;;;;;12.67;12.67;;;;;;;;5115191;28;8962;-80
2021/10/29 01:29:36;;;;;;;;;13.25;13.25;;;;;;;;5114161;27;8779;-80
2021/10/29 01:32:01;;;;;;;;;14.25;13.25;;;;;;;;5096062;28;8816;-79
2021/10/29 01:34:27;;;;;;;;;16.33;16.00;;;;;;;;5096103;28;8821;-79
2021/10/29 01:36:52;;;;;;;;;12.00;11.33;;;;;;;;5096167;28;8808;-78
2021/10/29 01:39:17;;;;;;;;;14.00;12.67;;;;;;;;5096136;28;8829;-78
2021/10/29 01:41:42;;;;;;;;;13.67;13.67;;;;;;;;5094544;28;8798;-78
2021/10/29 01:44:08;;;;;;;;;15.33;14.33;;;;;;;;5094734;28;9484;-79
2021/10/29 01:46:33;;;;;;;;;12.00;11.33;;;;;;;;5094396;28;8801;-78
2021/10/29 01:48:58;;;;;;;;;11.00;11.00;;;;;;;;5094642;28;8965;-78
2021/10/29 01:51:24;;;;;;;;;15.00;15.00;;;;;;;;5095889;28;8805;-79
2021/10/29 01:53:49;;;;;;;;;14.67;13.67;;;;;;;;5095741;28;8830;-79
2021/10/29 01:56:15;;;;;;;;;14.33;12.00;;;;;;;;5095777;28;8802;-79
2021/10/29 01:58:40;;;;;;;;;11.00;11.00;;;;;;;;5095774;28;8790;-80
2021/10/29 02:01:05;;;;;;;;;11.00;11.00;;;;;;;;5095583;28;8845;-79
2021/10/29 02:03:31;;;;;;;;;12.67;12.67;;;;;;;;5095730;28;8898;-79
2021/10/29 02:05:57;;;;;;;;;13.25;12.75;;;;;;;;5095728;28;8778;-80
2021/10/29 02:08:27;;;;;;;;;13.67;13.67;;;;;;;;5095500;28;8828;-80
2021/10/29 02:10:53;;;;;;;;;14.00;13.00;;;;;;;;5095671;28;8788;-79
2021/10/29 02:13:19;;;;;;;;;14.67;14.00;;;;;;;;5095725;28;8813;-80
2021/10/29 02:15:44;;;;;;;;;15.33;14.00;;;;;;;;5095435;28;8778;-80
2021/10/29 02:18:09;;;;;;;;;11.67;11.67;;;;;;;;5094055;28;11465;-80
2021/10/29 02:20:34;;;;;;;;;14.00;13.00;;;;;;;;5095624;28;8806;-78
2021/10/29 02:23:00;;;;;;;;;14.67;14.00;;;;;;;;5093958;28;8829;-78
2021/10/29 02:25:25;;;;;;;;;14.33;14.33;;;;;;;;5095393;28;8840;-78
2021/10/29 02:27:50;;;;;;;;;14.67;12.33;;;;;;;;5099043;28;8839;-79
2021/10/29 02:30:15;;;;;;;;;13.67;13.67;;;;;;;;5106866;28;8791;-78
2021/10/29 02:32:41;;;;;;;;;14.33;14.33;;;;;;;;5119448;27;8833;-79
2021/10/29 02:35:06;;;;;;;;;13.00;13.00;;;;;;;;5119356;27;8803;-78
2021/10/29 02:37:32;;;;;;;;;13.67;12.67;;;;;;;;5119128;27;8932;-80
2021/10/29 02:39:57;;;;;;;;;12.50;11.50;;;;;;;;5119329;27;8825;-80
2021/10/29 02:42:23;;;;;;;;;12.00;12.00;;;;;;;;5119133;27;8807;-80
2021/10/29 02:44:48;;;;;;;;;8.33;8.33;;;;;;;;5119190;27;8837;-80
2021/10/29 02:47:13;;;;;;;;;13.67;12.67;;;;;;;;5118902;27;8799;-80
2021/10/29 02:49:38;;;;;;;;;11.33;11.33;;;;;;;;5119149;27;8895;-78
2021/10/29 02:52:05;;;;;;;;;14.67;12.67;;;;;;;;5119011;27;8811;-80
2021/10/29 02:54:30;;;;;;;;;12.00;11.25;;;;;;;;5118413;27;8784;-80
2021/10/29 02:56:55;;;;;;;;;16.00;13.33;;;;;;;;5119058;27;8852;-79
2021/10/29 02:59:21;;;;;;;;;12.67;10.00;;;;;;;;5117520;28;8815;-80
2021/10/29 03:01:46;;;;;;;;;10.33;10.33;;;;;;;;5117216;28;8850;-80
2021/10/29 03:04:11;;;;;;;;;12.67;11.00;;;;;;;;5118986;27;8861;-78
2021/10/29 03:06:36;;;;;;;;;9.67;9.33;;;;;;;;5118865;27;8795;-78
2021/10/29 03:09:02;;;;;;;;;14.00;12.67;;;;;;;;5118889;27;8819;-77
2021/10/29 03:11:27;;;;;;;;;13.00;13.00;;;;;;;;5118812;27;8791;-79
2021/10/29 03:13:52;;;;;;;;;15.00;14.00;;;;;;;;5118809;27;8791;-78
2021/10/29 03:16:18;;;;;;;;;11.33;11.00;;;;;;;;5118588;28;8802;-78
2021/10/29 03:18:43;;;;;;;;;15.00;13.00;;;;;;;;5118362;27;8807;-78
2021/10/29 03:21:09;;;;;;;;;13.67;11.00;;;;;;;;5118301;27;8823;-79
2021/10/29 03:23:35;;;;;;;;;12.25;12.25;;;;;;;;5118506;27;8852;-79
2021/10/29 03:26:00;;;;;;;;;13.00;11.33;;;;;;;;5118488;27;8795;-79
2021/10/29 03:28:26;;;;;;;;;11.67;11.67;;;;;;;;5118467;27;8829;-80
2021/10/29 03:30:51;;;;;;;;;12.33;12.33;;;;;;;;5104960;27;8797;-79
2021/10/29 03:33:16;;;;;;;;;11.00;11.00;;;;;;;;5098058;28;8817;-78
2021/10/29 03:35:41;;;;;;;;;12.33;12.33;;;;;;;;5096470;28;8838;-78
2021/10/29 03:43:27;;;;;;;;;14.00;12.00;;;;;;;;5097662;28;8822;-78
2021/10/29 03:48:37;;;;;;;;;14.50;13.50;;;;;;;;5097690;28;8774;-78
2021/10/29 03:56:03;;;;;;;;;13.67;13.67;;;;;;;;5097173;28;8890;-79
2021/10/29 03:58:29;;;;;;;;;11.75;11.25;;;;;;;;5097535;28;8804;-80
2021/10/29 04:00:54;;;;;;;;;15.00;14.67;;;;;;;;5097345;28;8782;-79
2021/10/29 04:03:20;;;;;;;;;12.00;12.00;;;;;;;;5096074;28;9557;-80
2021/10/29 04:05:46;;;;;;;;;11.67;11.67;;;;;;;;5097509;28;8786;-80
2021/10/29 04:08:11;;;;;;;;;11.25;10.25;;;;;;;;5097315;28;8770;-78
2021/10/29 04:10:42;;;;;;;;;12.00;12.00;;;;;;;;5098204;28;8805;-80
2021/10/29 04:13:10;;;;;;;;;12.25;12.25;;;;;;;;5097523;28;8786;-77
2021/10/29 04:15:37;;;;;;;;;13.25;11.50;;;;;;;;5096976;28;8797;-78
2021/10/29 04:18:02;;;;;;;;;13.75;11.75;;;;;;;;5097003;28;8910;-77
2021/10/29 04:20:28;;;;;;;;;15.00;13.33;;;;;;;;5097348;28;8786;-79
2021/10/29 04:22:53;;;;;;;;;12.00;12.00;;;;;;;;5096999;28;8871;-79
2021/10/29 04:25:18;;;;;;;;;14.33;14.33;;;;;;;;5097160;28;9651;-80
2021/10/29 04:27:48;;;;;;;;;11.33;11.33;;;;;;;;5095710;28;8844;-80
2021/10/29 04:30:17;;;;;;;;;13.75;12.75;;;;;;;;5104619;28;8795;-79
2021/10/29 04:32:42;;;;;;;;;14.25;14.00;;;;;;;;5117342;28;8764;-79
2021/10/29 04:35:10;;;;;;;;;12.67;12.67;;;;;;;;5115967;28;8810;-80
2021/10/29 04:37:35;;;;;;;;;10.75;10.75;;;;;;;;5117277;27;8763;-78
2021/10/29 04:40:00;;;;;;;;;12.00;12.00;;;;;;;;5116062;28;9624;-79
2021/10/29 04:42:26;;;;;;;;;11.33;11.33;;;;;;;;5115781;28;8818;-79
2021/10/29 04:44:51;;;;;;;;;10.67;10.67;;;;;;;;5117152;28;8787;-78
2021/10/29 04:47:16;;;;;;;;;12.00;11.00;;;;;;;;5117457;27;8815;-79
2021/10/29 04:49:41;;;;;;;;;10.33;10.33;;;;;;;;5116692;27;8831;-78
2021/10/29 04:52:07;;;;;;;;;12.00;12.00;;;;;;;;5116996;27;8886;-78
2021/10/29 04:54:32;;;;;;;;;12.00;12.00;;;;;;;;5116713;27;8779;-81
2021/10/29 04:56:57;;;;;;;;;12.00;11.00;;;;;;;;5115733;28;8811;-81
2021/10/29 04:59:23;;;;;;;;;10.33;10.33;;;;;;;;5116983;27;8795;-79
2021/10/29 05:01:48;;;;;;;;;16.67;16.33;;;;;;;;5116471;27;8838;-80
2021/10/29 05:04:14;;;;;;;;;11.00;10.00;;;;;;;;5116984;27;8771;-80
2021/10/29 05:06:40;;;;;;;;;12.25;12.25;;;;;;;;5116820;27;8771;-80
2021/10/29 05:09:05;;;;;;;;;11.67;10.67;;;;;;;;5115530;28;8843;-80
2021/10/29 05:11:30;;;;;;;;;14.33;11.33;;;;;;;;5117129;27;8791;-81
2021/10/29 05:13:55;;;;;;;;;10.00;10.00;;;;;;;;5117934;27;8799;-79
2021/10/29 05:16:20;;;;;;;;;54.75;45.00;;;;;;;;5125607;27;8818;-78
2021/10/29 05:18:46;;;;;;;;;12.00;12.00;;;;;;;;5140436;27;8790;-79
2021/10/29 05:21:11;;;;;;;;;12.00;11.33;;;;;;;;5137001;28;8802;-78
2021/10/29 05:23:36;;;;;;;;;10.67;10.33;;;;;;;;5131943;27;8790;-82
2021/10/29 05:26:02;;;;;;;;;11.33;10.00;;;;;;;;5121805;27;8854;-82
2021/10/29 05:28:27;;;;;;;;;12.00;10.67;;;;;;;;5124224;27;8880;-81
2021/10/29 05:30:54;;;;;;;;;13.00;13.00;;;;;;;;5108020;27;8806;-83
2021/10/29 05:33:19;;;;;;;;;10.75;10.75;;;;;;;;5100507;28;8817;-81
2021/10/29 05:35:45;;;;;;;;;7.67;7.00;;;;;;;;5098661;28;8786;-83
2021/10/29 05:38:10;;;;;;;;;12.67;12.00;;;;;;;;5107889;28;9712;-79
2021/10/29 05:40:35;;;;;;;;;10.33;10.33;;;;;;;;5102295;28;8844;-79
2021/10/29 05:43:00;;;;;;;;;14.67;13.00;;;;;;;;5109288;28;8864;-80
2021/10/29 05:45:26;;;;;;;;;14.00;11.00;;;;;;;;5106946;28;8790;-79
2021/10/29 05:47:51;;;;;;;;;9.67;9.67;;;;;;;;5108631;28;8825;-79
2021/10/29 05:50:16;;;;;;;;;11.33;11.33;;;;;;;;5110264;28;8730;-79
2021/10/29 05:52:44;;;;;;;;;13.33;12.00;;;;;;;;5110335;28;8862;-79
2021/10/29 05:55:14;;;;;;;;;12.00;11.75;;;;;;;;5111407;28;8813;-79
2021/10/29 05:57:40;;;;;;;;;10.75;10.50;;;;;;;;5112569;28;8794;-80
2021/10/29 06:00:06;;;;;;;;;11.75;10.75;;;;;;;;5112508;28;8794;-79
2021/10/29 06:02:31;;;;;;;;;9.67;8.33;;;;;;;;5107988;28;8959;-81
2021/10/29 06:04:56;;;;;;;;;12.00;12.00;;;;;;;;5108071;28;8842;-78
2021/10/29 06:07:21;;;;;;;;;9.67;9.67;;;;;;;;5102263;28;8868;-77
2021/10/29 06:09:47;;;;;;;;;10.00;10.00;;;;;;;;5104032;28;8825;-78
2021/10/29 06:12:12;;;;;;;;;11.00;11.00;;;;;;;;5108827;28;8827;-78
2021/10/29 06:14:38;;;;;;;;;12.33;11.33;;;;;;;;5098510;28;8844;-78
2021/10/29 06:17:05;;;;;;;;;10.00;10.00;;;;;;;;5098808;28;8821;-78
2021/10/29 06:19:31;;;;;;;;;12.25;12.25;;;;;;;;5097896;28;8786;-78
2021/10/29 06:24:22;;;;;;;;;11.67;10.33;;;;;;;;5098881;28;9815;-79
2021/10/29 06:29:13;;;;;;;;;10.33;8.67;;;;;;;;5098893;28;9572;-78
2021/10/29 06:31:39;;;;;;;;;10.67;10.67;;;;;;;;5118678;28;8913;-78
2021/10/29 06:34:06;;;;;;;;;9.00;9.00;;;;;;;;5117958;28;8818;-78
2021/10/29 06:36:31;;;;;;;;;11.50;11.00;;;;;;;;5117925;28;8830;-78
2021/10/29 06:38:58;;;;;;;;;11.33;11.33;;;;;;;;5119367;27;8819;-78
2021/10/29 06:41:24;;;;;;;;;8.75;8.75;;;;;;;;5118880;27;8828;-79
2021/10/29 06:46:32;;;;;;;;;11.50;11.50;;;;;;;;5119037;27;8748;-79
2021/10/29 07:40:17;;;;;;;;;9.00;9.00;;;;;;;;5077467;28;9639;-82
2021/10/29 07:45:22;;;;;;;;;9.00;8.00;;;;;;;;5077630;28;8756;-81
2021/10/29 07:47:48;;;;;;;;;7.00;7.00;;;;;;;;5078236;28;8753;-79
2021/10/29 07:50:14;;;;;;;;;9.67;9.33;;;;;;;;5094130;28;8865;-80
2021/10/29 07:52:43;;;;;;;;;6.67;6.67;;;;;;;;5079012;28;12374;-82
2021/10/29 07:55:09;;;;;;;;;7.25;7.25;;;;;;;;5096695;28;8823;-78
2021/10/29 07:57:35;;;;;;;;;8.00;8.00;;;;;;;;5081309;28;8721;-79
2021/10/29 08:00:04;;;;;;;;;7.33;6.67;;;;;;;;5077469;28;8866;-79
2021/10/29 08:02:30;;;;;;;;;6.75;6.00;;;;;;;;5077359;28;11427;-80
2021/10/29 08:04:56;;;;;;;;;8.75;8.00;;;;;;;;5077213;28;8792;-78
2021/10/29 08:07:21;;;;;;;;;14.00;13.00;;;;;;;;5077514;28;8788;-78
2021/10/29 08:09:46;;;;;;;;;4.33;4.33;;;;;;;;5078847;28;8796;-79
2021/10/29 08:12:12;;;;;;;;;7.00;7.00;;;;;;;;5079467;28;8820;-78
2021/10/29 08:14:38;;;;;;;;;8.33;6.67;;;;;;;;5079022;28;8776;-78
2021/10/29 08:17:03;;;;;;;;;7.33;7.33;;;;;;;;5077815;28;8824;-79
2021/10/29 08:19:31;;;;;;;;;7.00;7.00;;;;;;;;5076339;28;8815;-78
2021/10/29 08:21:56;;;;;;;;;8.50;7.75;;;;;;;;5077102;28;8882;-78
2021/10/29 08:24:22;;;;;;;;;7.00;7.00;;;;;;;;5093877;28;8802;-80
2021/10/29 08:26:47;;;;;;;;;10.00;9.00;;;;;;;;5096769;28;8785;-80
2021/10/29 08:29:13;;;;;;;;;6.67;6.67;;;;;;;;5097488;28;8785;-82
2021/10/29 08:31:38;;;;;;;;;7.00;7.00;;;;;;;;5116687;28;8819;-80
2021/10/29 08:34:03;;;;;;;;;9.33;8.67;;;;;;;;5117587;27;8787;-82
2021/10/29 08:36:29;;;;;;;;;10.67;7.67;;;;;;;;5117120;27;8880;-80
2021/10/29 08:38:55;;;;;;;;;6.50;6.50;;;;;;;;5117555;27;8771;-81
2021/10/29 08:41:20;;;;;;;;;9.00;9.00;;;;;;;;5117727;27;8783;-79
2021/10/29 08:43:46;;;;;;;;;8.00;7.67;;;;;;;;5117655;27;8779;-81
2021/10/29 08:46:13;;;;;;;;;8.67;8.00;;;;;;;;5117597;27;8813;-79
2021/10/29 08:48:39;;;;;;;;;8.00;8.00;;;;;;;;5117559;27;8796;-79
2021/10/29 08:51:05;;;;;;;;;8.25;7.00;;;;;;;;5117353;27;8798;-80
2021/10/29 08:53:30;;;;;;;;;8.33;8.33;;;;;;;;5117100;27;8811;-80
2021/10/29 08:56:00;;;;;;;;;10.67;9.67;;;;;;;;5117271;27;8795;-82
2021/10/29 08:58:26;;;;;;;;;5.50;5.50;;;;;;;;5117077;27;8771;-80
2021/10/29 09:00:51;;;;;;;;;8.67;8.00;;;;;;;;5116294;27;8815;-80
2021/10/29 09:03:30;;;;;;;;;9.33;8.00;;;;;;;;5117086;28;8923;-80
2021/10/29 09:06:03;;;;;;;;;9.75;9.50;;;;;;;;5117183;28;8763;-80
2021/10/29 09:08:42;;;;;;;;;6.00;6.00;;;;;;;;5117103;28;8802;-80
2021/10/29 09:33:50;;;;;;;;;7.75;6.75;;;;;;;;5106105;28;8797;-79
2021/10/29 09:36:29;;;;;;;;;8.25;6.50;;;;;;;;5100955;28;8805;-80
2021/10/29 09:39:12;;;;;;;;;6.50;5.00;;;;;;;;5099795;28;8781;-82
2021/10/29 09:41:38;;;;;;;;;7.00;7.00;;;;;;;;5098305;28;8898;-81
2021/10/29 09:44:05;;;;;;;;;7.00;7.00;;;;;;;;5098857;28;8798;-80
2021/10/29 09:46:41;;;;;;;;;6.75;6.75;;;;;;;;5099422;28;11434;-80
2021/10/29 09:49:12;;;;;;;;;4.00;4.00;;;;;;;;5101764;28;8766;-80
2021/10/29 09:51:49;;;;;;;;;6.00;6.00;;;;;;;;5099154;28;9718;-79
2021/10/29 09:54:18;;;;;;;;;8.00;8.00;;;;;;;;5101315;28;8859;-83
2021/10/29 09:56:52;;;;;;;;;6.00;6.00;;;;;;;;5104844;28;8792;-82
2021/10/29 09:59:18;;;;;;;;;6.75;6.75;;;;;;;;5089278;28;8806;-79
2021/10/29 10:01:43;;;;;;;;;6.00;6.00;;;;;;;;5108452;28;9545;-81
2021/10/29 10:04:09;;;;;;;;;6.00;6.00;;;;;;;;5102959;28;8965;-81
2021/10/29 10:06:38;;;;;;;;;6.00;6.00;;;;;;;;5098000;28;9683;-81
2021/10/29 10:09:07;;;;;;;;;8.00;8.00;;;;;;;;5099550;28;8785;-82
2021/10/29 10:11:34;;;;;;;;;5.75;5.75;;;;;;;;5099589;28;8777;-81
2021/10/29 10:14:02;;;;;;;;;6.00;5.75;;;;;;;;5099029;28;8762;-81
2021/10/29 10:16:28;;;;;;;;;5.00;5.00;;;;;;;;5097973;28;8833;-81
2021/10/29 10:18:55;;;;;;;;;9.00;7.75;;;;;;;;5110095;28;10748;-79
2021/10/29 10:21:22;;;;;;;;;7.00;7.00;;;;;;;;5113886;28;8752;-80
2021/10/29 10:23:50;;;;;;;;;7.75;6.75;;;;;;;;5109979;28;8750;-80
2021/10/29 10:42:40;;;;;;;;;7.25;7.00;;;;;;;;5135127;28;8740;-79
2021/10/29 10:45:21;;;;;;;;;4.25;4.25;;;;;;;;5133567;27;8787;-79
2021/10/29 10:47:52;;;;;;;;;6.00;6.00;;;;;;;;5130625;27;8747;-79
2021/10/29 10:50:27;;;;;;;;;6.50;6.50;;;;;;;;5119961;28;8920;-82
2021/10/29 10:53:15;;;;;;;;;8.00;6.75;;;;;;;;5099310;28;8765;-81
2021/10/29 10:58:38;;;;;;;;;5.75;5.50;;;;;;;;5108223;28;8793;-81
2021/10/29 11:01:06;;;;;;;;;8.00;7.25;;;;;;;;5106831;28;8809;-82
2021/10/29 11:06:39;;;;;;;;;7.50;7.50;;;;;;;;5123314;28;8756;-82
2021/10/29 11:11:55;;;;;;;;;8.50;8.50;;;;;;;;5135723;28;8759;-81
2021/10/29 11:14:47;;;;;;;;;9.25;7.25;;;;;;;;5124172;28;8828;-82
2021/10/29 11:17:32;;;;;;;;;6.75;6.75;;;;;;;;5123344;27;8859;-81
2021/10/29 11:19:57;;;;;;;;;7.75;7.50;;;;;;;;5123199;28;8848;-81
2021/10/29 11:22:49;;;;;;;;;9.33;8.00;;;;;;;;5120970;28;8826;-82
2021/10/29 11:25:14;;;;;;;;;8.50;7.00;;;;;;;;5117216;28;8791;-81
2021/10/29 11:27:42;;;;;;;;;7.67;6.33;;;;;;;;5123939;28;8791;-80
2021/10/29 11:30:07;;;;;;;;;9.00;8.25;;;;;;;;5125009;28;8775;-80
2021/10/29 11:32:33;;;;;;;;;7.33;7.00;;;;;;;;5125725;27;8827;-81
2021/10/29 11:35:01;;;;;;;;;10.00;8.00;;;;;;;;5128317;27;8771;-81
2021/10/29 11:37:26;;;;;;;;;9.25;9.25;;;;;;;;5129423;27;8771;-80
2021/10/29 11:39:53;;;;;;;;;7.00;7.00;;;;;;;;5119567;27;8865;-78
2021/10/29 11:42:18;;;;;;;;;7.75;7.75;;;;;;;;5117578;27;8732;-79
2021/10/29 11:44:44;;;;;;;;;8.67;7.67;;;;;;;;5117955;27;8775;-79
2021/10/29 11:47:09;;;;;;;;;9.00;9.00;;;;;;;;5117390;28;8917;-80
2021/10/29 11:49:34;;;;;;;;;6.00;6.00;;;;;;;;5118373;27;8822;-79
2021/10/29 11:52:03;;;;;;;;;9.00;7.67;;;;;;;;5118526;27;8815;-79
2021/10/29 11:54:31;;;;;;;;;7.75;7.75;;;;;;;;5118089;28;8751;-79
2021/10/29 12:00:52;;;;;;;;;7.50;7.50;;;;;;;;5122795;28;8759;-79
2021/10/29 12:08:08;;;;;;;;;7.25;7.00;;;;;;;;5125599;28;8783;-78
2021/10/29 12:10:33;;;;;;;;;8.00;7.75;;;;;;;;5122722;28;8759;-79
2021/10/29 12:12:59;;;;;;;;;8.00;8.00;;;;;;;;5121236;28;8823;-78
2021/10/29 12:15:26;;;;;;;;;6.75;6.75;;;;;;;;5123636;27;8809;-78
2021/10/29 12:17:54;;;;;;;;;7.50;7.50;;;;;;;;5123473;27;8819;-78
2021/10/29 12:20:33;;;;;;;;;9.50;9.25;;;;;;;;5132039;27;13439;-79
2021/10/29 12:23:04;;;;;;;;;10.25;9.75;;;;;;;;5138972;27;8806;-78
2021/10/29 12:28:19;;;;;;;;;8.67;8.67;;;;;;;;5138885;27;8806;-78
2021/10/29 13:03:57;;;;;;;;;8.75;8.75;;;;;;;;5154265;27;8887;-80
2021/10/29 13:06:27;;;;;;;;;10.25;9.25;;;;;;;;5152343;27;8788;-81
2021/10/29 13:08:52;;;;;;;;;40.67;34.00;;;;;;;;5154272;27;8877;-80
2021/10/29 13:11:20;;;;;;;;;25.00;21.33;;;;;;;;5154635;27;9148;-83
2021/10/29 13:13:53;;;;;;;;;31.25;29.75;;;;;;;;5154292;27;8772;-81
2021/10/29 13:16:18;;;;;;;;;18.25;16.75;;;;;;;;5143971;27;8822;-79
2021/10/29 13:37:12;;;;;;;;;21.00;20.33;;;;;;;;5120135;28;8927;-83
2021/10/29 13:53:40;;;;;;;;;11.50;10.50;;;;;;;;5095813;28;8792;-77
2021/10/29 14:35:36;;;;;;;;;15.25;14.25;;;;;;;;5139306;27;9664;-79
2021/10/29 15:30:14;;;;;;;;;15.50;15.50;;;;;;;;5144823;27;8812;-79
2021/10/29 15:46:34;;;;;;;;;18.25;17.75;;;;;;;;5162848;27;8765;-77
2021/10/29 15:49:08;;;;;;;;;15.00;14.75;;;;;;;;5161355;27;8844;-78
2021/10/29 15:51:35;;;;;;;;;14.75;14.50;;;;;;;;5160520;27;8964;-79
2021/10/29 15:54:02;;;;;;;;;17.25;15.25;;;;;;;;5158787;27;8755;-79
2021/10/29 15:56:51;;;;;;;;;16.50;15.00;;;;;;;;5158370;27;8709;-79
2021/10/29 16:18:20;;;;;;;;;43.00;37.33;;;;;;;;5168202;27;10736;-77
2021/10/29 16:20:45;;;;;;;;;55.25;46.00;;;;;;;;5144675;27;9390;-76
2021/10/29 16:23:11;;;;;;;;;58.50;47.00;;;;;;;;5161668;27;11473;-76
2021/10/29 16:25:39;;;;;;;;;31.67;29.67;;;;;;;;5159952;27;8816;-77
2021/10/29 16:28:09;;;;;;;;;54.50;44.00;;;;;;;;5158213;27;8816;-77
2021/10/29 16:30:35;;;;;;;;;26.75;25.50;;;;;;;;5146883;27;10220;-77
2021/10/29 16:35:27;;;;;;;;;31.00;30.00;;;;;;;;5136921;27;8832;-77
2021/10/29 16:37:52;;;;;;;;;22.67;22.67;;;;;;;;5118601;27;8976;-78
2021/10/29 16:40:18;;;;;;;;;30.33;27.00;;;;;;;;5137476;27;8801;-76
2021/10/29 16:42:43;;;;;;;;;21.00;20.33;;;;;;;;5137136;27;8824;-77
2021/10/29 16:45:10;;;;;;;;;18.67;18.33;;;;;;;;5137058;27;8827;-77
2021/10/29 16:47:41;;;;;;;;;21.00;20.75;;;;;;;;5137143;27;8874;-77
2021/10/29 16:50:06;;;;;;;;;19.25;17.25;;;;;;;;5118322;27;8914;-78
2021/10/29 16:52:31;;;;;;;;;20.33;19.33;;;;;;;;5118340;27;8797;-76
2021/10/29 16:54:56;;;;;;;;;20.00;19.67;;;;;;;;5136921;27;8830;-77
2021/10/29 16:57:22;;;;;;;;;18.33;17.33;;;;;;;;5136804;27;8794;-77
2021/10/29 16:59:47;;;;;;;;;14.33;14.00;;;;;;;;5136813;27;8794;-77
2021/10/29 17:02:12;;;;;;;;;16.00;15.00;;;;;;;;5137029;27;8802;-76
2021/10/29 17:04:38;;;;;;;;;29.33;29.33;;;;;;;;5136865;27;8793;-77
2021/10/29 17:07:03;;;;;;;;;29.33;27.33;;;;;;;;5139815;27;8801;-76
2021/10/29 17:09:28;;;;;;;;;51.00;42.00;;;;;;;;5121793;27;8829;-77
2021/10/29 17:11:55;;;;;;;;;39.67;33.67;;;;;;;;5140468;27;8793;-76
2021/10/29 17:14:20;;;;;;;;;34.50;31.25;;;;;;;;5140143;27;8768;-77
2021/10/29 17:16:46;;;;;;;;;37.67;32.67;;;;;;;;5140321;27;8781;-76
2021/10/29 17:19:11;;;;;;;;;19.25;17.50;;;;;;;;5140131;27;8856;-77
2021/10/29 17:21:37;;;;;;;;;31.00;28.00;;;;;;;;5136820;27;8777;-76
2021/10/29 17:24:02;;;;;;;;;24.67;23.00;;;;;;;;5129925;27;8903;-76
2021/10/29 17:26:27;;;;;;;;;25.33;25.00;;;;;;;;5135650;27;8803;-76
2021/10/29 17:28:52;;;;;;;;;13.67;12.67;;;;;;;;5139560;27;8806;-77
2021/10/29 17:31:19;;;;;;;;;20.67;20.67;;;;;;;;5156656;27;8859;-76
2021/10/29 17:33:44;;;;;;;;;92.25;86.75;;;;;;;;5141956;27;8753;-76
2021/10/29 17:36:10;;;;;;;;;89.00;83.25;;;;;;;;5141956;27;12402;-76
2021/10/29 17:38:36;;;;;;;;;65.00;52.75;;;;;;;;5141949;27;8822;-76
2021/10/29 17:41:02;;;;;;;;;34.00;31.67;;;;;;;;5141970;27;8792;-76
2021/10/29 17:43:27;;;;;;;;;18.33;15.67;;;;;;;;5142111;27;9017;-76
2021/10/29 17:45:54;;;;;;;;;64.75;52.25;;;;;;;;5160387;27;8795;-76
2021/10/29 17:48:19;;;;;;;;;35.33;31.67;;;;;;;;5160520;27;8764;-76
2021/10/29 17:50:45;;;;;;;;;72.75;65.75;;;;;;;;5160821;27;9099;-76
2021/10/29 17:53:10;;;;;;;;;32.00;29.33;;;;;;;;5160056;27;8870;-76
2021/10/29 17:55:37;;;;;;;;;42.00;35.33;;;;;;;;5160204;27;8888;-76
2021/10/29 17:58:03;;;;;;;;;22.25;20.50;;;;;;;;5160355;27;8760;-75
2021/10/29 18:00:28;;;;;;;;;27.00;26.33;;;;;;;;5160183;27;8882;-76
2021/10/29 18:02:55;;;;;;;;;19.00;18.00;;;;;;;;5160466;27;8784;-75
2021/10/29 18:05:20;;;;;;;;;22.25;21.00;;;;;;;;5160362;27;8749;-75
2021/10/29 18:07:45;;;;;;;;;25.00;25.00;;;;;;;;5160271;27;8777;-76
2021/10/29 18:10:11;;;;;;;;;34.00;32.00;;;;;;;;5160112;27;9625;-75
2021/10/29 18:12:36;;;;;;;;;82.25;77.00;;;;;;;;5141529;27;8808;-75
2021/10/29 18:15:02;;;;;;;;;25.00;25.00;;;;;;;;5160054;27;8777;-75
2021/10/29 18:17:28;;;;;;;;;25.33;24.33;;;;;;;;5160142;27;8880;-75
2021/10/29 18:19:53;;;;;;;;;55.25;46.25;;;;;;;;5137641;27;8927;-76
2021/10/29 18:22:18;;;;;;;;;30.33;29.33;;;;;;;;5137817;27;8821;-75
2021/10/29 18:24:44;;;;;;;;;32.67;29.67;;;;;;;;5139385;27;8872;-75
2021/10/29 18:27:11;;;;;;;;;26.67;25.33;;;;;;;;5139257;27;8857;-75
2021/10/29 18:29:36;;;;;;;;;16.75;16.75;;;;;;;;5136238;27;8812;-75
2021/10/29 18:32:05;;;;;;;;;27.67;26.00;;;;;;;;5117000;28;8910;-75
2021/10/29 18:34:31;;;;;;;;;46.00;38.67;;;;;;;;5117213;28;8728;-75
2021/10/29 18:36:57;;;;;;;;;39.67;34.33;;;;;;;;5118399;28;9507;-75
2021/10/29 18:39:22;;;;;;;;;42.33;36.33;;;;;;;;5118391;27;9156;-77
2021/10/29 18:41:49;;;;;;;;;48.50;40.00;;;;;;;;5118483;28;8791;-76
2021/10/29 18:44:14;;;;;;;;;51.50;43.25;;;;;;;;5118231;27;8775;-75
2021/10/29 18:46:40;;;;;;;;;38.00;34.00;;;;;;;;5118297;28;10251;-76
2021/10/29 18:49:05;;;;;;;;;41.67;36.00;;;;;;;;5118195;28;9561;-75
2021/10/29 18:51:32;;;;;;;;;30.33;28.67;;;;;;;;5118168;27;9541;-75
2021/10/29 18:53:57;;;;;;;;;41.67;36.33;;;;;;;;5118048;27;9800;-75
2021/10/29 18:56:22;;;;;;;;;52.00;43.50;;;;;;;;5118069;28;9521;-75
2021/10/29 18:58:48;;;;;;;;;36.33;32.00;;;;;;;;5118041;28;8839;-75
2021/10/29 19:01:13;;;;;;;;;35.67;32.67;;;;;;;;5117811;27;9539;-76
2021/10/29 19:03:39;;;;;;;;;54.50;44.00;;;;;;;;5117972;27;8980;-78
2021/10/29 19:06:05;;;;;;;;;47.50;39.00;;;;;;;;5117976;27;8840;-76
2021/10/29 19:08:30;;;;;;;;;21.50;20.75;;;;;;;;5116375;27;9099;-77
2021/10/29 19:10:55;;;;;;;;;26.00;25.67;;;;;;;;5116323;28;9239;-77
2021/10/29 19:13:21;;;;;;;;;47.00;39.67;;;;;;;;5116480;28;8835;-77
2021/10/29 19:15:46;;;;;;;;;48.50;40.50;;;;;;;;5108936;27;8810;-78
2021/10/29 19:18:11;;;;;;;;;54.00;43.00;;;;;;;;5106717;27;9742;-78
2021/10/29 19:20:37;;;;;;;;;37.67;32.00;;;;;;;;5123764;27;8851;-76
2021/10/29 19:23:02;;;;;;;;;31.67;29.67;;;;;;;;5127994;27;8781;-76
2021/10/29 19:25:28;;;;;;;;;22.67;22.67;;;;;;;;5133197;27;8808;-77
2021/10/29 19:27:53;;;;;;;;;49.00;40.33;;;;;;;;5126712;27;8819;-77
2021/10/29 19:30:18;;;;;;;;;22.67;22.67;;;;;;;;5132894;27;8826;-79
2021/10/29 19:32:44;;;;;;;;;22.00;22.00;;;;;;;;5128662;27;8818;-80
2021/10/29 19:35:11;;;;;;;;;27.00;27.00;;;;;;;;5107752;27;8788;-79
2021/10/29 19:37:50;;;;;;;;;24.75;24.00;;;;;;;;5118666;27;8775;-79
2021/10/29 19:43:00;;;;;;;;;23.75;23.75;;;;;;;;5125674;27;8781;-78
2021/10/29 19:45:26;;;;;;;;;26.50;26.50;;;;;;;;5113128;27;8795;-77
2021/10/29 19:47:52;;;;;;;;;21.50;21.25;;;;;;;;5104036;27;8825;-77
2021/10/29 19:50:17;;;;;;;;;32.33;30.33;;;;;;;;5128809;27;8818;-76
2021/10/29 19:52:42;;;;;;;;;22.33;21.00;;;;;;;;5126961;27;8806;-77
2021/10/29 19:55:08;;;;;;;;;28.67;26.00;;;;;;;;5120140;27;8836;-76
2021/10/29 19:59:59;;;;;;;;;21.67;19.67;;;;;;;;5126018;27;8798;-77
2021/10/29 20:02:24;;;;;;;;;22.00;22.00;;;;;;;;5120816;27;8893;-76
2021/10/29 20:04:49;;;;;;;;;25.00;25.00;;;;;;;;5127133;27;8822;-76